createdAt,value
2019-04-25T00:00:29.222Z,1.50
2019-04-25T00:01:29.243Z,1.10
2019-04-25T00:02:29.199Z,1.30
2019-04-25T00:03:29.194Z,1.50
2019-04-25T00:04:29.180Z,1.00
2019-04-25T00:05:29.162Z,1.20
2019-04-25T00:06:29.201Z,1.40
2019-04-25T00:07:29.161Z,1.40
2019-04-25T00:08:29.134Z,1.20
2019-04-25T00:09:29.121Z,1.20
2019-04-25T00:10:29.111Z,1.10
2019-04-25T00:11:29.132Z,1.30
2019-04-25T00:12:29.083Z,1.10
2019-04-25T00:13:29.121Z,1.00
2019-04-25T00:14:29.071Z,1.30
2019-04-25T00:15:29.061Z,1.30
2019-04-25T00:16:29.043Z,1.00
2019-04-25T00:17:29.033Z,1.30
2019-04-25T00:18:29.064Z,1.10
2019-04-25T00:19:29.019Z,1.00
2019-04-25T00:20:29.002Z,1.30
2019-04-25T00:21:28.984Z,1.20
2019-04-25T00:22:28.981Z,1.20
2019-04-25T00:23:29.012Z,1.10
2019-04-25T00:24:28.953Z,1.30
2019-04-25T00:25:28.954Z,1.80
2019-04-25T00:26:28.945Z,1.10
2019-04-25T00:27:28.934Z,1.50
2019-04-25T00:28:28.947Z,1.30
2019-04-25T00:29:28.910Z,1.40
2019-04-25T00:30:28.931Z,1.20
2019-04-25T00:31:28.883Z,1.30
2019-04-25T00:32:28.864Z,1.20
2019-04-25T00:33:28.880Z,1.30
2019-04-25T00:34:28.865Z,1.30
2019-04-25T00:35:28.873Z,1.40
2019-04-25T00:36:28.863Z,1.30
2019-04-25T00:37:28.815Z,1.20
2019-04-25T00:38:28.843Z,1.30
2019-04-25T00:39:28.793Z,1.60
2019-04-25T00:40:28.784Z,1.40
2019-04-25T00:41:28.776Z,1.10
2019-04-25T00:42:28.801Z,1.40
2019-04-25T00:43:28.792Z,1.50
2019-04-25T00:44:28.771Z,1.30
2019-04-25T00:45:28.732Z,1.30
2019-04-25T00:46:28.738Z,1.30
2019-04-25T00:47:28.714Z,1.40
2019-04-25T00:48:28.716Z,1.70
2019-04-25T00:49:28.705Z,1.20
2019-04-25T00:50:28.694Z,1.20
2019-04-25T00:51:28.704Z,1.60
2019-04-25T00:52:28.664Z,1.40
2019-04-25T00:53:28.683Z,1.30
2019-04-25T00:54:28.641Z,1.30
2019-04-25T00:55:29.052Z,1.50
2019-04-25T00:56:28.642Z,1.50
2019-04-25T00:57:28.604Z,1.30
2019-04-25T00:58:28.642Z,1.20
2019-04-25T00:59:28.602Z,1.60
2019-04-25T01:00:28.588Z,1.60
2019-04-25T01:01:28.565Z,1.40
2019-04-25T01:02:28.575Z,1.30
2019-04-25T01:03:28.576Z,1.40
2019-04-25T01:04:28.557Z,1.40
2019-04-25T01:05:28.515Z,1.30
2019-04-25T01:06:28.520Z,1.50
2019-04-25T01:07:28.504Z,1.30
2019-04-25T01:08:28.533Z,1.70
2019-04-25T01:09:28.490Z,1.50
2019-04-25T01:10:28.464Z,1.60
2019-04-25T01:11:28.482Z,1.80
2019-04-25T01:12:28.454Z,1.40
2019-04-25T01:13:28.455Z,1.40
2019-04-25T01:14:28.470Z,1.40
2019-04-25T01:15:28.405Z,1.50
2019-04-25T01:16:28.396Z,1.90
2019-04-25T01:17:28.383Z,1.60
2019-04-25T01:18:29.282Z,1.60
2019-04-25T01:19:28.367Z,1.70
2019-04-25T01:20:28.401Z,1.40
2019-04-25T01:21:28.382Z,1.70
2019-04-25T01:22:28.349Z,1.40
2019-04-25T01:23:28.333Z,1.70
2019-04-25T01:24:28.316Z,1.40
2019-04-25T01:25:38.567Z,1.70
2019-04-25T01:26:29.327Z,1.30
2019-04-25T01:27:28.285Z,1.40
2019-04-25T01:28:28.265Z,1.80
2019-04-25T01:29:28.261Z,1.60
2019-04-25T01:30:28.235Z,1.40
2019-04-25T01:31:28.236Z,1.50
2019-04-25T01:32:28.254Z,1.50
2019-04-25T01:33:28.215Z,1.70
2019-04-25T01:34:28.209Z,1.50
2019-04-25T01:35:28.202Z,1.60
2019-04-25T01:36:28.186Z,1.70
2019-04-25T01:37:28.207Z,1.70
2019-04-25T01:38:28.154Z,1.80
2019-04-25T01:39:28.155Z,1.60
2019-04-25T01:40:28.140Z,1.90
2019-04-25T01:41:28.128Z,1.80
2019-04-25T01:42:28.153Z,1.60
2019-04-25T01:43:28.144Z,1.50
2019-04-25T01:44:28.097Z,1.60
2019-04-25T01:45:28.080Z,1.70
2019-04-25T01:46:28.067Z,1.60
2019-04-25T01:47:28.056Z,1.40
2019-04-25T01:48:28.085Z,1.60
2019-04-25T01:49:28.045Z,1.70
2019-04-25T01:50:28.033Z,1.40
2019-04-25T01:51:28.023Z,1.60
2019-04-25T01:52:28.016Z,1.70
2019-04-25T01:53:28.044Z,1.70
2019-04-25T01:54:27.989Z,1.70
2019-04-25T01:55:27.978Z,1.80
2019-04-25T01:56:27.984Z,1.50
2019-04-25T01:57:27.955Z,1.70
2019-04-25T01:58:27.978Z,1.60
2019-04-25T01:59:27.964Z,1.40
2019-04-25T02:00:27.918Z,1.60
2019-04-25T02:01:27.904Z,1.70
2019-04-25T02:02:27.896Z,1.70
2019-04-25T02:03:27.892Z,1.80
2019-04-25T02:04:27.904Z,1.70
2019-04-25T02:05:27.894Z,1.60
2019-04-25T02:06:27.856Z,1.70
2019-04-25T02:07:27.842Z,1.70
2019-04-25T02:08:27.843Z,1.70
2019-04-25T02:09:27.834Z,1.80
2019-04-25T02:10:27.845Z,1.60
2019-04-25T02:11:27.795Z,1.70
2019-04-25T02:12:27.787Z,1.90
2019-04-25T02:13:27.776Z,1.40
2019-04-25T02:14:27.764Z,1.90
2019-04-25T02:15:27.785Z,1.70
2019-04-25T02:16:27.744Z,1.40
2019-04-25T02:17:27.733Z,1.90
2019-04-25T02:18:27.726Z,1.70
2019-04-25T02:19:27.715Z,1.70
2019-04-25T02:20:27.735Z,1.50
2019-04-25T02:21:27.689Z,1.80
2019-04-25T02:22:27.675Z,1.50
2019-04-25T02:23:27.668Z,2.10
2019-04-25T02:24:27.694Z,1.50
2019-04-25T02:25:27.657Z,1.60
2019-04-25T02:26:27.645Z,1.70
2019-04-25T02:27:27.668Z,2.00
2019-04-25T02:28:27.614Z,1.80
2019-04-25T02:29:27.595Z,1.80
2019-04-25T02:30:27.643Z,1.40
2019-04-25T02:31:27.584Z,1.60
2019-04-25T02:32:27.566Z,1.70
2019-04-25T02:33:27.564Z,1.60
2019-04-25T02:34:27.573Z,1.70
2019-04-25T02:35:27.580Z,1.60
2019-04-25T02:36:27.564Z,1.70
2019-04-25T02:37:27.515Z,1.90
2019-04-25T02:38:27.544Z,1.80
2019-04-25T02:39:27.495Z,1.70
2019-04-25T02:40:27.488Z,2.30
2019-04-25T02:41:27.487Z,2.20
2019-04-25T02:42:27.467Z,1.90
2019-04-25T02:43:27.494Z,1.70
2019-04-25T02:44:27.435Z,1.80
2019-04-25T02:45:27.433Z,2.00
2019-04-25T02:46:27.465Z,1.70
2019-04-25T02:47:27.417Z,1.70
2019-04-25T02:48:27.413Z,2.10
2019-04-25T02:49:35.498Z,1.90
2019-04-25T02:50:28.380Z,1.70
2019-04-25T02:51:27.406Z,1.60
2019-04-25T02:52:27.356Z,1.90
2019-04-25T02:53:27.350Z,2.10
2019-04-25T02:54:27.337Z,1.60
2019-04-25T02:55:31.872Z,1.70
2019-04-25T02:56:34.298Z,2.30
2019-04-25T02:57:28.309Z,2.20
2019-04-25T02:58:27.313Z,1.80
2019-04-25T02:59:27.282Z,1.50
2019-04-25T03:13:54.655Z,2.00
2019-04-25T03:14:16.702Z,1.90
2019-04-25T03:15:18.423Z,1.90
2019-04-25T03:16:16.685Z,1.80
2019-04-25T03:17:16.661Z,1.60
2019-04-25T03:18:16.681Z,1.60
2019-04-25T03:19:16.674Z,1.60
2019-04-25T03:20:16.656Z,1.70
2019-04-25T03:21:17.642Z,1.70
2019-04-25T03:22:16.684Z,1.60
2019-04-25T03:23:16.643Z,1.70
2019-04-25T03:24:17.009Z,1.80
2019-04-25T03:25:17.557Z,2.20
2019-04-25T03:26:16.573Z,1.60
2019-04-25T03:27:16.609Z,1.60
2019-04-25T03:28:16.544Z,1.60
2019-04-25T03:29:16.531Z,1.30
2019-04-25T03:30:17.782Z,1.70
2019-04-25T03:31:22.709Z,2.00
2019-04-25T03:32:19.941Z,1.50
2019-04-25T03:33:19.530Z,1.80
2019-04-25T03:34:20.377Z,1.70
2019-04-25T03:35:16.470Z,1.60
2019-04-25T03:36:17.056Z,1.90
2019-04-25T03:37:16.500Z,1.60
2019-04-25T03:38:16.472Z,1.50
2019-04-25T03:39:16.597Z,1.60
2019-04-25T03:40:16.435Z,1.80
2019-04-25T03:41:16.402Z,1.60
2019-04-25T03:42:16.393Z,1.50
2019-04-25T03:43:16.381Z,1.70
2019-04-25T03:44:16.371Z,1.60
2019-04-25T03:45:16.411Z,1.80
2019-04-25T03:46:16.362Z,1.60
2019-04-25T03:47:16.371Z,1.90
2019-04-25T03:48:16.332Z,1.80
2019-04-25T03:49:16.356Z,1.70
2019-04-25T03:50:16.308Z,1.50
2019-04-25T03:51:16.300Z,1.50
2019-04-25T03:52:16.281Z,1.40
2019-04-25T03:53:16.312Z,1.60
2019-04-25T03:54:16.262Z,1.60
2019-04-25T03:55:16.277Z,1.90
2019-04-25T03:56:16.244Z,1.60
2019-04-25T03:57:16.237Z,1.90
2019-04-25T03:58:16.262Z,1.40
2019-04-25T03:59:16.228Z,1.60
2019-04-25T04:00:16.201Z,1.70
2019-04-25T04:01:16.211Z,1.60
2019-04-25T04:02:16.193Z,1.90
2019-04-25T04:03:16.245Z,1.70
2019-04-25T04:04:16.437Z,1.70
2019-04-25T04:05:16.144Z,1.60
2019-04-25T04:06:16.142Z,1.60
2019-04-25T04:07:16.149Z,1.70
2019-04-25T04:08:16.143Z,1.60
2019-04-25T04:09:16.142Z,1.50
2019-04-25T04:10:16.139Z,1.60
2019-04-25T04:11:16.128Z,1.80
2019-04-25T04:12:16.071Z,1.90
2019-04-25T04:13:16.073Z,1.80
2019-04-25T04:14:16.083Z,1.60
2019-04-25T04:15:16.092Z,1.40
2019-04-25T04:16:16.021Z,1.60
2019-04-25T04:17:16.127Z,1.70
2019-04-25T04:18:17.276Z,1.80
2019-04-25T04:19:16.043Z,1.80
2019-04-25T04:20:16.043Z,1.60
2019-04-25T04:21:17.263Z,1.70
2019-04-25T04:22:16.262Z,1.80
2019-04-25T04:23:15.951Z,1.80
2019-04-25T04:24:16.105Z,1.70
2019-04-25T04:25:16.026Z,1.50
2019-04-25T04:26:15.931Z,1.70
2019-04-25T04:27:16.785Z,2.00
2019-04-25T04:28:16.048Z,1.70
2019-04-25T04:29:16.486Z,2.00
2019-04-25T04:30:16.498Z,2.20
2019-04-25T04:31:16.591Z,1.90
2019-04-25T04:32:16.352Z,1.80
2019-04-25T04:33:26.702Z,1.80
2019-04-25T04:34:17.035Z,2.00
2019-04-25T04:35:16.169Z,1.80
2019-04-25T04:36:17.703Z,1.80
2019-04-25T04:37:16.201Z,1.60
2019-04-25T04:38:16.471Z,1.70
2019-04-25T04:39:16.853Z,1.90
2019-04-25T04:40:17.068Z,2.00
2019-04-25T04:41:16.422Z,1.80
2019-04-25T04:42:16.078Z,1.90
2019-04-25T04:43:16.562Z,1.90
2019-04-25T04:44:16.497Z,1.70
2019-04-25T04:45:16.576Z,1.90
2019-04-25T04:46:18.176Z,2.20
2019-04-25T04:47:16.612Z,2.10
2019-04-25T04:48:16.654Z,2.10
2019-04-25T04:49:16.423Z,2.00
2019-04-25T04:50:16.540Z,2.10
2019-04-25T04:51:16.037Z,2.00
2019-04-25T04:52:15.885Z,1.60
2019-04-25T04:53:16.045Z,2.00
2019-04-25T04:54:15.642Z,1.90
2019-04-25T04:55:17.253Z,1.90
2019-04-25T04:56:16.496Z,2.20
2019-04-25T04:57:26.305Z,1.80
2019-04-25T04:58:17.656Z,1.80
2019-04-25T04:59:16.411Z,1.90
2019-04-25T05:00:15.866Z,2.10
2019-04-25T05:01:15.872Z,2.00
2019-04-25T05:02:16.533Z,1.90
2019-04-25T05:03:15.817Z,2.20
2019-04-25T05:04:16.055Z,2.10
2019-04-25T05:05:15.941Z,2.20
2019-04-25T05:06:16.268Z,2.00
2019-04-25T05:07:16.261Z,2.20
2019-04-25T05:08:16.409Z,2.10
2019-04-25T05:09:16.422Z,1.90
2019-04-25T05:10:17.729Z,2.50
2019-04-25T05:11:16.775Z,2.10
2019-04-25T05:12:16.209Z,1.90
2019-04-25T05:13:16.693Z,1.90
2019-04-25T05:14:16.206Z,2.60
2019-04-25T05:15:16.876Z,2.10
2019-04-25T05:16:16.234Z,2.10
2019-04-25T05:17:16.348Z,1.90
2019-04-25T05:18:33.003Z,1.70
2019-04-25T05:19:16.824Z,1.60
2019-04-25T05:20:17.278Z,1.50
2019-04-25T05:21:16.192Z,1.50
2019-04-25T05:22:16.059Z,1.60
2019-04-25T05:23:16.239Z,1.60
2019-04-25T05:24:16.424Z,1.70
2019-04-25T05:25:16.356Z,1.90
2019-04-25T05:26:16.331Z,1.90
2019-04-25T05:27:31.238Z,2.10
2019-04-25T05:28:18.148Z,1.80
2019-04-25T05:29:19.605Z,1.70
2019-04-25T05:30:17.008Z,1.70
2019-04-25T05:31:16.808Z,2.00
2019-04-25T05:32:15.786Z,1.90
2019-04-25T05:33:18.586Z,1.60
2019-04-25T05:34:17.185Z,1.90
2019-04-25T05:35:16.260Z,1.90
2019-04-25T05:36:17.219Z,1.70
2019-04-25T05:37:15.522Z,1.80
2019-04-25T05:38:16.272Z,1.90
2019-04-25T05:39:17.366Z,1.50
2019-04-25T05:40:16.142Z,2.00
2019-04-25T05:41:16.121Z,1.70
2019-04-25T05:42:16.261Z,1.70
2019-04-25T05:43:15.140Z,1.60
2019-04-25T05:44:16.027Z,1.60
2019-04-25T05:45:16.121Z,1.60
2019-04-25T05:46:15.353Z,1.90
2019-04-25T05:47:15.982Z,1.70
2019-04-25T05:48:15.955Z,2.00
2019-04-25T05:49:15.640Z,1.70
2019-04-25T05:50:15.798Z,1.90
2019-04-25T05:51:15.773Z,1.70
2019-04-25T05:52:15.991Z,1.80
2019-04-25T05:53:16.189Z,1.40
2019-04-25T05:54:16.507Z,1.60
2019-04-25T05:55:17.323Z,1.60
2019-04-25T05:56:16.439Z,1.40
2019-04-25T05:57:14.933Z,1.80
2019-04-25T05:58:14.917Z,1.60
2019-04-25T05:59:15.423Z,1.60
2019-04-25T06:00:15.098Z,2.00
2019-04-25T06:01:14.884Z,1.40
2019-04-25T06:02:14.895Z,1.50
2019-04-25T06:03:15.278Z,1.90
2019-04-25T06:04:14.907Z,1.30
2019-04-25T06:05:14.845Z,1.70
2019-04-25T06:06:14.873Z,1.80
2019-04-25T06:07:14.823Z,1.70
2019-04-25T06:08:14.818Z,1.50
2019-04-25T06:09:14.814Z,1.40
2019-04-25T06:10:14.811Z,1.70
2019-04-25T06:11:14.811Z,1.60
2019-04-25T06:12:14.780Z,1.70
2019-04-25T06:13:14.765Z,1.40
2019-04-25T06:14:14.774Z,1.20
2019-04-25T06:15:14.763Z,1.40
2019-04-25T06:16:14.763Z,1.30
2019-04-25T06:17:14.715Z,1.10
2019-04-25T06:18:14.734Z,1.10
2019-04-25T06:19:18.505Z,1.20
2019-04-25T06:20:15.714Z,1.60
2019-04-25T06:21:14.672Z,1.30
2019-04-25T06:22:15.142Z,1.00
2019-04-25T06:23:14.667Z,1.30
2019-04-25T06:24:14.647Z,1.30
2019-04-25T06:25:16.384Z,1.50
2019-04-25T06:26:22.483Z,1.20
2019-04-25T06:27:15.618Z,1.60
2019-04-25T06:28:14.604Z,1.30
2019-04-25T06:29:14.635Z,1.50
2019-04-25T06:30:15.880Z,1.30
2019-04-25T06:31:14.595Z,1.70
2019-04-25T06:32:14.598Z,1.50
2019-04-25T06:33:14.598Z,1.60
2019-04-25T06:34:14.525Z,1.40
2019-04-25T06:35:14.554Z,1.60
2019-04-25T06:36:14.505Z,1.50
2019-04-25T06:37:14.543Z,1.20
2019-04-25T06:38:14.504Z,1.10
2019-04-25T06:39:14.560Z,1.80
2019-04-25T06:40:14.465Z,1.80
2019-04-25T06:41:14.477Z,1.50
2019-04-25T06:42:14.508Z,1.20
2019-04-25T06:43:14.427Z,1.40
2019-04-25T06:44:14.439Z,1.30
2019-04-25T06:45:14.426Z,1.20
2019-04-25T06:46:14.406Z,1.30
2019-04-25T06:47:15.138Z,1.40
2019-04-25T06:48:14.384Z,1.40
2019-04-25T06:49:14.393Z,1.20
2019-04-25T06:50:15.845Z,1.10
2019-04-25T06:51:14.370Z,1.30
2019-04-25T06:52:14.337Z,1.30
2019-04-25T06:53:14.381Z,1.50
2019-04-25T06:54:14.316Z,1.50
2019-04-25T06:55:14.307Z,1.10
2019-04-25T06:56:14.306Z,1.20
2019-04-25T06:57:14.286Z,1.30
2019-04-25T06:58:14.623Z,1.30
2019-04-25T06:59:14.264Z,1.40
2019-04-25T07:00:14.248Z,1.50
2019-04-25T07:01:14.245Z,1.20
2019-04-25T07:02:14.259Z,1.30
2019-04-25T07:03:15.597Z,1.00
2019-04-25T07:04:14.236Z,1.30
2019-04-25T07:05:25.818Z,1.10
2019-04-25T07:06:15.231Z,1.20
2019-04-25T07:07:14.972Z,1.70
2019-04-25T07:08:14.166Z,1.40
2019-04-25T07:09:14.645Z,1.10
2019-04-25T07:10:14.170Z,1.30
2019-04-25T07:11:14.167Z,1.50
2019-04-25T07:12:14.148Z,1.20
2019-04-25T07:13:14.339Z,1.20
2019-04-25T07:14:14.310Z,1.20
2019-04-25T07:15:14.091Z,1.00
2019-04-25T07:16:14.079Z,1.10
2019-04-25T07:17:14.389Z,1.20
2019-04-25T07:18:14.114Z,1.60
2019-04-25T07:19:14.706Z,1.30
2019-04-25T07:20:14.095Z,1.20
2019-04-25T07:21:14.279Z,1.20
2019-04-25T07:22:15.507Z,1.10
2019-04-25T07:23:14.042Z,1.50
2019-04-25T07:24:14.560Z,1.20
2019-04-25T07:25:13.991Z,1.10
2019-04-25T07:26:13.972Z,1.30
2019-04-25T07:27:13.963Z,1.20
2019-04-25T07:28:23.839Z,1.20
2019-04-25T07:29:14.943Z,1.00
2019-04-25T07:30:26.709Z,1.30
2019-04-25T07:31:14.932Z,1.00
2019-04-25T07:32:14.487Z,1.40
2019-04-25T07:33:13.926Z,1.10
2019-04-25T07:34:13.885Z,1.00
2019-04-25T07:35:13.874Z,1.60
2019-04-25T07:36:15.506Z,1.20
2019-04-25T07:37:13.905Z,1.30
2019-04-25T07:38:14.117Z,1.50
2019-04-25T07:39:13.913Z,1.10
2019-04-25T07:40:13.972Z,1.10
2019-04-25T07:41:14.771Z,1.00
2019-04-25T07:42:14.106Z,1.20
2019-04-25T07:43:14.009Z,1.30
2019-04-25T07:44:14.685Z,1.20
2019-04-25T07:45:14.149Z,1.70
2019-04-25T07:46:13.756Z,1.40
2019-04-25T07:47:15.829Z,0.80
2019-04-25T07:48:14.018Z,1.30
2019-04-25T07:49:13.747Z,1.20
2019-04-25T07:50:15.264Z,0.90
2019-04-25T07:51:16.360Z,1.20
2019-04-25T07:52:13.707Z,1.40
2019-04-25T07:53:14.302Z,1.10
2019-04-25T07:54:14.327Z,1.20
2019-04-25T07:55:13.811Z,1.30
2019-04-25T07:56:14.225Z,1.60
2019-04-25T07:57:13.687Z,1.40
2019-04-25T07:58:14.386Z,1.10
2019-04-25T07:59:13.990Z,1.20
2019-04-25T08:00:13.653Z,1.10
2019-04-25T08:01:14.047Z,1.30
2019-04-25T08:02:13.599Z,1.30
2019-04-25T08:03:13.820Z,1.10
2019-04-25T08:04:13.779Z,1.40
2019-04-25T08:05:14.381Z,1.10
2019-04-25T08:06:13.697Z,1.20
2019-04-25T08:07:14.277Z,1.00
2019-04-25T08:08:13.645Z,1.30
2019-04-25T08:09:15.474Z,1.30
2019-04-25T08:10:14.006Z,1.10
2019-04-25T08:11:14.059Z,1.30
2019-04-25T08:12:13.526Z,1.20
2019-04-25T08:13:13.520Z,1.20
2019-04-25T08:14:14.445Z,1.40
2019-04-25T08:15:13.919Z,1.50
2019-04-25T08:16:14.603Z,1.60
2019-04-25T08:17:14.474Z,1.30
2019-04-25T08:18:13.940Z,1.30
2019-04-25T08:19:13.671Z,1.30
2019-04-25T08:20:13.674Z,1.20
2019-04-25T08:21:13.399Z,1.40
2019-04-25T08:22:13.652Z,1.50
2019-04-25T08:23:13.884Z,1.30
2019-04-25T08:24:13.944Z,1.40
2019-04-25T08:25:13.796Z,1.20
2019-04-25T08:26:14.255Z,1.30
2019-04-25T08:27:13.419Z,1.30
2019-04-25T08:28:13.817Z,1.30
2019-04-25T08:29:13.480Z,1.30
2019-04-25T08:30:14.044Z,1.50
2019-04-25T08:31:13.615Z,1.20
2019-04-25T08:32:14.239Z,1.50
2019-04-25T08:33:13.924Z,1.20
2019-04-25T08:34:14.558Z,1.30
2019-04-25T08:35:13.899Z,1.10
2019-04-25T08:36:13.683Z,1.60
2019-04-25T08:37:18.923Z,1.50
2019-04-25T08:38:14.247Z,1.00
2019-04-25T08:39:14.579Z,1.20
2019-04-25T08:40:13.726Z,1.20
2019-04-25T08:41:14.064Z,2.10
2019-04-25T08:42:14.670Z,1.60
2019-04-25T08:43:14.678Z,1.10
2019-04-25T08:44:14.208Z,1.80
2019-04-25T08:45:13.397Z,1.30
2019-04-25T08:46:13.988Z,1.10
2019-04-25T08:47:14.437Z,1.50
2019-04-25T08:48:13.633Z,1.50
2019-04-25T08:49:14.081Z,1.50
2019-04-25T08:50:26.268Z,1.30
2019-04-25T08:51:14.091Z,1.30
2019-04-25T08:52:13.295Z,1.30
2019-04-25T08:53:13.638Z,1.30
2019-04-25T08:54:13.659Z,1.40
2019-04-25T08:55:14.240Z,1.50
2019-04-25T08:56:13.333Z,1.20
2019-04-25T08:57:13.922Z,1.20
2019-04-25T08:58:13.745Z,1.30
2019-04-25T08:59:14.254Z,1.40
2019-04-25T09:00:14.319Z,1.40
2019-04-25T09:01:14.109Z,1.30
2019-04-25T09:02:13.573Z,1.20
2019-04-25T09:03:14.377Z,1.50
2019-04-25T09:04:13.378Z,1.50
2019-04-25T09:05:14.507Z,1.10
2019-04-25T09:06:13.339Z,1.30
2019-04-25T09:07:13.451Z,1.30
2019-04-25T09:08:14.253Z,1.20
2019-04-25T09:09:13.659Z,1.10
2019-04-25T09:10:13.487Z,1.50
2019-04-25T09:11:13.368Z,1.40
2019-04-25T09:12:14.026Z,1.50
2019-04-25T09:13:13.468Z,1.50
2019-04-25T09:14:13.471Z,1.60
2019-04-25T09:15:14.108Z,1.80
2019-04-25T09:16:13.777Z,1.60
2019-04-25T09:17:14.188Z,1.40
2019-04-25T09:18:14.113Z,1.90
2019-04-25T09:19:14.149Z,1.40
2019-04-25T09:20:13.932Z,1.90
2019-04-25T09:21:13.780Z,1.40
2019-04-25T09:22:13.251Z,1.70
2019-04-25T09:23:13.634Z,1.80
2019-04-25T09:24:13.406Z,1.40
2019-04-25T09:25:13.765Z,1.50
2019-04-25T09:26:14.163Z,1.60
2019-04-25T09:27:13.433Z,1.90
2019-04-25T09:28:14.119Z,1.50
2019-04-25T09:29:17.572Z,1.40
2019-04-25T09:30:14.322Z,1.30
2019-04-25T09:31:13.949Z,1.20
2019-04-25T09:32:13.775Z,1.20
2019-04-25T09:33:13.303Z,1.60
2019-04-25T09:34:13.991Z,1.50
2019-04-25T09:35:13.705Z,1.30
2019-04-25T09:36:14.229Z,1.50
2019-04-25T09:37:14.147Z,1.50
2019-04-25T09:38:13.306Z,1.60
2019-04-25T09:39:13.584Z,1.30
2019-04-25T09:40:13.912Z,1.30
2019-04-25T09:41:15.052Z,1.70
2019-04-25T09:42:14.127Z,1.30
2019-04-25T09:43:13.636Z,1.50
2019-04-25T09:44:14.347Z,1.50
2019-04-25T09:45:13.343Z,1.40
2019-04-25T09:46:13.294Z,1.20
2019-04-25T09:47:13.632Z,1.50
2019-04-25T09:48:13.194Z,1.70
2019-04-25T09:49:14.064Z,1.70
2019-04-25T09:50:13.883Z,1.50
2019-04-25T09:51:13.531Z,1.40
2019-04-25T09:52:13.404Z,1.20
2019-04-25T09:53:21.827Z,1.40
2019-04-25T09:54:15.173Z,1.90
2019-04-25T09:55:13.268Z,1.30
2019-04-25T09:56:13.928Z,1.30
2019-04-25T09:57:13.496Z,1.30
2019-04-25T09:58:13.617Z,2.10
2019-04-25T09:59:13.804Z,1.40
2019-04-25T10:00:13.247Z,1.30
2019-04-25T10:01:13.908Z,1.60
2019-04-25T10:02:12.353Z,1.70
2019-04-25T10:03:13.519Z,1.40
2019-04-25T10:04:12.318Z,1.30
2019-04-25T10:05:13.924Z,1.50
2019-04-25T10:06:13.366Z,1.40
2019-04-25T10:07:12.326Z,1.60
2019-04-25T10:08:13.447Z,1.60
2019-04-25T10:09:13.554Z,1.60
2019-04-25T10:10:13.530Z,1.40
2019-04-25T10:11:12.247Z,1.50
2019-04-25T10:12:12.986Z,1.40
2019-04-25T10:13:12.227Z,1.20
2019-04-25T10:14:13.571Z,1.40
2019-04-25T10:15:12.230Z,1.30
2019-04-25T10:16:12.200Z,1.30
2019-04-25T10:17:13.638Z,1.40
2019-04-25T10:18:14.236Z,1.30
2019-04-25T10:19:13.261Z,1.60
2019-04-25T10:20:14.480Z,1.50
2019-04-25T10:21:12.162Z,1.60
2019-04-25T10:22:13.610Z,1.40
2019-04-25T10:23:13.632Z,1.30
2019-04-25T10:24:13.554Z,1.20
2019-04-25T10:25:13.324Z,1.40
2019-04-25T10:26:12.095Z,1.40
2019-04-25T10:27:12.080Z,1.40
2019-04-25T10:28:13.254Z,1.90
2019-04-25T10:29:12.061Z,1.10
2019-04-25T10:30:17.625Z,1.30
2019-04-25T10:31:13.647Z,1.70
2019-04-25T10:32:13.302Z,1.50
2019-04-25T10:33:12.013Z,2.50
2019-04-25T10:34:12.017Z,1.60
2019-04-25T10:35:14.651Z,1.30
2019-04-25T10:36:12.017Z,2.00
2019-04-25T10:37:13.709Z,2.20
2019-04-25T10:38:13.522Z,1.40
2019-04-25T10:39:12.024Z,1.20
2019-04-25T10:40:13.376Z,1.10
2019-04-25T10:41:11.946Z,1.00
2019-04-25T10:42:13.531Z,1.30
2019-04-25T10:43:11.924Z,1.10
2019-04-25T10:44:11.934Z,1.20
2019-04-25T10:45:21.245Z,1.10
2019-04-25T10:46:14.174Z,1.10
2019-04-25T10:47:11.927Z,1.30
2019-04-25T10:48:13.582Z,1.10
2019-04-25T10:49:11.862Z,1.10
2019-04-25T10:50:13.393Z,0.90
2019-04-25T10:51:13.595Z,1.40
2019-04-25T10:52:11.847Z,0.90
2019-04-25T10:53:11.808Z,1.10
2019-04-25T10:54:11.846Z,1.30
2019-04-25T10:55:11.807Z,1.10
2019-04-25T10:56:11.773Z,1.30
2019-04-25T10:57:11.792Z,1.10
2019-04-25T10:58:11.758Z,1.10
2019-04-25T10:59:11.741Z,1.20
2019-04-25T11:00:11.732Z,1.30
2019-04-25T11:01:11.721Z,1.50
2019-04-25T11:02:11.762Z,1.40
2019-04-25T11:03:11.717Z,1.40
2019-04-25T11:04:11.700Z,1.30
2019-04-25T11:05:11.743Z,1.00
2019-04-25T11:06:11.675Z,1.30
2019-04-25T11:07:13.541Z,1.00
2019-04-25T11:08:11.644Z,1.10
2019-04-25T11:09:11.641Z,1.30
2019-04-25T11:10:11.641Z,1.20
2019-04-25T11:11:11.653Z,1.10
2019-04-25T11:12:11.628Z,1.50
2019-04-25T11:13:11.616Z,1.70
2019-04-25T11:14:11.618Z,1.10
2019-04-25T11:15:11.571Z,1.30
2019-04-25T11:16:11.593Z,1.30
2019-04-25T11:17:13.210Z,1.50
2019-04-25T11:18:13.147Z,1.20
2019-04-25T11:19:11.533Z,1.30
2019-04-25T11:20:11.534Z,1.40
2019-04-25T11:21:11.575Z,1.10
2019-04-25T11:22:11.502Z,1.50
2019-04-25T11:23:11.486Z,1.00
2019-04-25T11:24:11.498Z,1.70
2019-04-25T11:25:11.471Z,1.00
2019-04-25T11:26:11.494Z,1.20
2019-04-25T11:27:11.478Z,1.30
2019-04-25T11:28:11.465Z,1.20
2019-04-25T11:29:11.435Z,1.30
2019-04-25T11:30:11.645Z,1.10
2019-04-25T11:31:11.411Z,1.50
2019-04-25T11:32:11.426Z,1.20
2019-04-25T11:33:11.407Z,1.40
2019-04-25T11:34:11.407Z,1.40
2019-04-25T11:35:11.364Z,1.30
2019-04-25T11:36:11.365Z,1.50
2019-04-25T11:37:11.397Z,1.10
2019-04-25T11:38:11.330Z,1.30
2019-04-25T11:39:11.325Z,1.10
2019-04-25T11:40:11.317Z,1.50
2019-04-25T11:41:11.299Z,1.60
2019-04-25T11:42:11.329Z,1.30
2019-04-25T11:43:11.280Z,1.30
2019-04-25T11:44:11.279Z,0.90
2019-04-25T11:45:11.347Z,1.10
2019-04-25T11:46:11.279Z,1.30
2019-04-25T11:47:11.287Z,1.10
2019-04-25T11:48:11.229Z,1.10
2019-04-25T11:49:11.273Z,1.50
2019-04-25T11:50:11.212Z,1.10
2019-04-25T11:51:11.232Z,1.50
2019-04-25T11:52:11.191Z,1.40
2019-04-25T11:53:11.199Z,1.30
2019-04-25T11:54:11.210Z,1.00
2019-04-25T11:55:11.171Z,1.30
2019-04-25T11:56:11.206Z,1.30
2019-04-25T11:57:11.161Z,1.00
2019-04-25T11:58:11.142Z,1.10
2019-04-25T11:59:11.122Z,1.10
2019-04-25T12:00:21.552Z,1.00
2019-04-25T12:01:13.755Z,1.10
2019-04-25T12:02:11.087Z,1.10
2019-04-25T12:03:11.077Z,1.10
2019-04-25T12:04:11.062Z,1.10
2019-04-25T12:05:11.072Z,1.00
2019-04-25T12:06:11.275Z,1.10
2019-04-25T12:07:11.034Z,1.00
2019-04-25T12:08:11.039Z,1.20
2019-04-25T12:09:11.005Z,1.30
2019-04-25T12:10:11.014Z,1.00
2019-04-25T12:11:10.991Z,1.10
2019-04-25T12:12:10.977Z,1.30
2019-04-25T12:13:10.968Z,1.20
2019-04-25T12:14:11.016Z,1.20
2019-04-25T12:15:10.953Z,1.10
2019-04-25T12:16:10.966Z,1.20
2019-04-25T12:17:10.944Z,1.10
2019-04-25T12:18:10.947Z,1.10
2019-04-25T12:19:10.937Z,1.20
2019-04-25T12:20:10.886Z,1.00
2019-04-25T12:21:10.901Z,1.10
2019-04-25T12:22:10.879Z,0.90
2019-04-25T12:23:10.877Z,1.20
2019-04-25T12:24:10.934Z,1.20
2019-04-25T12:25:10.887Z,0.80
2019-04-25T12:26:10.834Z,1.20
2019-04-25T12:27:10.856Z,1.00
2019-04-25T12:28:10.807Z,1.00
2019-04-25T12:29:10.854Z,1.10
2019-04-25T12:30:10.816Z,1.10
2019-04-25T12:31:10.769Z,1.10
2019-04-25T12:32:10.804Z,1.00
2019-04-25T12:33:20.332Z,0.90
2019-04-25T12:34:11.761Z,1.50
2019-04-25T12:35:10.738Z,1.20
2019-04-25T12:36:10.767Z,0.90
2019-04-25T12:37:10.734Z,1.20
2019-04-25T12:38:10.699Z,1.80
2019-04-25T12:39:10.691Z,1.20
2019-04-25T12:40:10.708Z,1.10
2019-04-25T12:41:10.700Z,1.10
2019-04-25T12:42:10.671Z,1.20
2019-04-25T12:43:10.644Z,0.90
2019-04-25T12:44:10.645Z,1.10
2019-04-25T12:45:10.621Z,1.10
2019-04-25T12:46:10.643Z,1.20
2019-04-25T12:47:10.603Z,0.80
2019-04-25T12:48:10.642Z,1.20
2019-04-25T12:49:10.582Z,0.80
2019-04-25T12:50:10.572Z,1.10
2019-04-25T12:51:10.564Z,1.30
2019-04-25T12:52:10.552Z,1.00
2019-04-25T12:53:10.573Z,1.30
2019-04-25T12:54:10.532Z,1.00
2019-04-25T12:55:10.524Z,1.30
2019-04-25T12:56:10.514Z,0.90
2019-04-25T12:57:10.512Z,1.00
2019-04-25T12:58:10.530Z,1.40
2019-04-25T12:59:10.512Z,1.10
2019-04-25T13:00:10.464Z,1.10
2019-04-25T13:01:10.462Z,1.20
2019-04-25T13:02:10.475Z,1.00
2019-04-25T13:03:10.437Z,1.20
2019-04-25T13:04:10.446Z,1.20
2019-04-25T13:05:10.415Z,0.90
2019-04-25T13:06:10.397Z,1.40
2019-04-25T13:07:10.426Z,1.40
2019-04-25T13:08:10.385Z,1.20
2019-04-25T13:09:10.378Z,1.10
2019-04-25T13:10:10.367Z,1.10
2019-04-25T13:11:10.630Z,1.00
2019-04-25T13:12:10.685Z,1.00
2019-04-25T13:13:10.327Z,1.10
2019-04-25T13:14:10.320Z,0.90
2019-04-25T13:15:11.120Z,1.00
2019-04-25T13:16:10.298Z,1.00
2019-04-25T13:17:10.288Z,1.00
2019-04-25T13:18:10.279Z,1.20
2019-04-25T13:19:20.101Z,1.00
2019-04-25T13:20:11.288Z,1.30
2019-04-25T13:21:10.288Z,1.10
2019-04-25T13:22:10.228Z,1.20
2019-04-25T13:23:10.230Z,1.20
2019-04-25T13:24:10.528Z,1.00
2019-04-25T13:25:10.986Z,0.90
2019-04-25T13:26:10.231Z,1.10
2019-04-25T13:27:10.179Z,1.10
2019-04-25T13:28:10.172Z,1.30
2019-04-25T13:29:10.207Z,1.30
2019-04-25T13:30:10.150Z,1.30
2019-04-25T13:31:12.270Z,1.00